Time;durP1;ratioP1;P1;durP2;ratioP2;P2;SDS_P1;SDS_P2;PMS_P1;PMS_P2;Temp;Humidity;BMP_temperature;BMP_pressure;BME280_temperature;BME280_humidity;BME280_pressure;Samples;Min_cycle;Max_cycle;Signal;HPM_P1;HPM_P2
2022/12/31 00:00:56;;;;;;;;;;;11.90;99.90;;;;;;5016405;28;19938;-79
2022/12/31 00:03:21;;;;;;;;;;;11.90;99.90;;;;;;5017918;28;20414;-78
2022/12/31 00:05:47;;;;;;;;;;;11.80;99.90;;;;;;5015575;28;19944;-79
2022/12/31 00:08:12;;;;;;;;;;;11.80;99.90;;;;;;5013695;28;20384;-79
2022/12/31 00:10:40;;;;;;;;;;;11.80;99.90;;;;;;5013331;28;19939;-79
2022/12/31 00:13:07;;;;;;;;;;;11.80;99.90;;;;;;5014873;28;19941;-79
2022/12/31 00:15:33;;;;;;;;;;;11.80;99.90;;;;;;5013177;28;19941;-79
2022/12/31 00:17:58;;;;;;;;;;;11.80;99.90;;;;;;5015637;28;19945;-78
2022/12/31 00:20:24;;;;;;;;;;;11.70;99.90;;;;;;5018120;28;20466;-78
2022/12/31 00:22:49;;;;;;;;;;;11.70;99.90;;;;;;5031161;28;19932;-78
2022/12/31 00:25:15;;;;;;;;;;;11.70;99.90;;;;;;5013291;28;19987;-79
2022/12/31 00:27:40;;;;;;;;;;;11.70;99.90;;;;;;5009615;28;19936;-79
2022/12/31 00:30:06;;;;;;;;;;;11.70;99.90;;;;;;5017471;28;19925;-79
2022/12/31 00:32:32;;;;;;;;;;;11.70;99.90;;;;;;5014684;28;19933;-79
2022/12/31 00:34:57;;;;;;;;;;;11.60;99.90;;;;;;5014685;28;19936;-78
2022/12/31 00:37:23;;;;;;;;;;;11.70;99.90;;;;;;5012389;28;20547;-78
2022/12/31 00:39:48;;;;;;;;;;;11.60;99.90;;;;;;5011219;28;19925;-78
2022/12/31 00:42:14;;;;;;;;;;;11.60;99.90;;;;;;5013539;28;19933;-78
2022/12/31 00:44:39;;;;;;;;;;;11.60;99.90;;;;;;5016876;28;19975;-78
2022/12/31 00:47:05;;;;;;;;;;;11.60;99.90;;;;;;5013745;28;19929;-78
2022/12/31 00:49:31;;;;;;;;;;;11.70;99.90;;;;;;5011666;28;20282;-78
2022/12/31 00:51:56;;;;;;;;;;;11.70;99.90;;;;;;5012033;28;19945;-78
2022/12/31 00:54:22;;;;;;;;;;;11.70;99.90;;;;;;5012150;28;19981;-78
2022/12/31 00:56:47;;;;;;;;;;;11.70;99.90;;;;;;5015984;28;19925;-78
2022/12/31 00:59:13;;;;;;;;;;;11.70;99.90;;;;;;5016140;28;19979;-78
2022/12/31 01:01:39;;;;;;;;;;;11.70;99.90;;;;;;5012793;28;20266;-78
2022/12/31 01:04:06;;;;;;;;;;;11.70;99.90;;;;;;5013551;28;20356;-78
2022/12/31 01:06:32;;;;;;;;;;;11.70;99.90;;;;;;5011441;28;20122;-78
2022/12/31 01:08:57;;;;;;;;;;;11.70;99.90;;;;;;5013951;28;19972;-78
2022/12/31 01:11:27;;;;;;;;;;;11.70;99.90;;;;;;5008885;28;19951;-78
2022/12/31 01:14:00;;;;;;;;;;;11.70;99.90;;;;;;5013451;28;19988;-78
2022/12/31 01:16:27;;;;;;;;;;;11.70;99.90;;;;;;5010055;28;19933;-78
2022/12/31 01:18:53;;;;;;;;;;;11.70;99.90;;;;;;5011592;28;19953;-78
2022/12/31 01:21:20;;;;;;;;;;;11.70;99.90;;;;;;5017770;28;19925;-78
2022/12/31 01:23:45;;;;;;;;;;;11.70;99.90;;;;;;5017689;28;19926;-78
2022/12/31 01:26:12;;;;;;;;;;;11.70;99.90;;;;;;5015938;28;19984;-78
2022/12/31 01:28:38;;;;;;;;;;;11.60;99.90;;;;;;5012584;28;19964;-78
2022/12/31 01:31:08;;;;;;;;;;;11.60;99.90;;;;;;5015868;28;19925;-78
2022/12/31 01:33:34;;;;;;;;;;;11.60;99.90;;;;;;5010355;28;19934;-77
2022/12/31 01:36:04;;;;;;;;;;;11.60;99.90;;;;;;5010375;28;19967;-77
2022/12/31 01:38:29;;;;;;;;;;;11.60;99.90;;;;;;5011590;28;20027;-77
2022/12/31 01:40:55;;;;;;;;;;;11.60;99.90;;;;;;5010430;28;19983;-77
2022/12/31 01:43:20;;;;;;;;;;;11.60;99.90;;;;;;5012715;28;20013;-77
2022/12/31 01:45:48;;;;;;;;;;;11.60;99.90;;;;;;5010354;28;19933;-77
2022/12/31 01:48:15;;;;;;;;;;;11.60;99.90;;;;;;5012364;28;19936;-77
2022/12/31 01:50:41;;;;;;;;;;;11.60;99.90;;;;;;5012751;28;19926;-76
2022/12/31 01:53:09;;;;;;;;;;;11.50;99.90;;;;;;5009380;28;19969;-76
2022/12/31 01:55:37;;;;;;;;;;;11.50;99.90;;;;;;5010604;28;19977;-76
2022/12/31 01:58:08;;;;;;;;;;;11.50;99.90;;;;;;5010344;28;20056;-76
2022/12/31 02:00:33;;;;;;;;;;;11.40;99.90;;;;;;5010645;28;20229;-76
2022/12/31 02:02:59;;;;;;;;;;;11.40;99.90;;;;;;5009652;28;19937;-75
2022/12/31 02:05:28;;;;;;;;;;;11.40;99.90;;;;;;5012222;28;20073;-76
2022/12/31 02:07:53;;;;;;;;;;;11.40;99.90;;;;;;5008567;28;19929;-76
2022/12/31 02:10:19;;;;;;;;;;;11.30;99.90;;;;;;5010779;28;19994;-75
2022/12/31 02:12:45;;;;;;;;;;;11.30;99.90;;;;;;5009938;28;19985;-76
2022/12/31 02:15:11;;;;;;;;;;;11.30;99.90;;;;;;5011144;28;20011;-76
2022/12/31 02:17:40;;;;;;;;;;;11.30;99.90;;;;;;5012175;28;19925;-76
2022/12/31 02:20:14;;;;;;;;;;;11.20;99.90;;;;;;5011812;28;19929;-75
2022/12/31 02:23:09;;;;;;;;;;;11.20;99.90;;;;;;5010396;28;20357;-76
2022/12/31 02:25:35;;;;;;;;;;;11.20;99.90;;;;;;5012004;28;19955;-76
2022/12/31 02:28:00;;;;;;;;;;;11.10;99.90;;;;;;5008650;28;20377;-76
2022/12/31 02:30:28;;;;;;;;;;;11.10;99.90;;;;;;5013593;28;19959;-76
2022/12/31 02:32:57;;;;;;;;;;;11.10;99.90;;;;;;5029129;28;19932;-75
2022/12/31 02:35:28;;;;;;;;;;;11.10;99.90;;;;;;5009424;28;19930;-76
2022/12/31 02:37:57;;;;;;;;;;;11.10;99.90;;;;;;5010022;28;19925;-76
2022/12/31 02:40:23;;;;;;;;;;;11.10;99.90;;;;;;5012446;28;19937;-76
2022/12/31 02:42:49;;;;;;;;;;;11.00;99.90;;;;;;5010388;28;20016;-76
2022/12/31 02:45:18;;;;;;;;;;;11.00;99.90;;;;;;5008005;28;19955;-76
2022/12/31 02:47:46;;;;;;;;;;;11.00;99.90;;;;;;4996026;28;19961;-76
2022/12/31 02:50:27;;;;;;;;;;;10.90;99.90;;;;;;5009542;28;19960;-76
2022/12/31 02:53:15;;;;;;;;;;;10.90;99.90;;;;;;5011210;28;19952;-77
2022/12/31 02:55:49;;;;;;;;;;;11.00;99.90;;;;;;4999620;28;19965;-77
2022/12/31 02:58:15;;;;;;;;;;;11.00;99.90;;;;;;5010540;28;19969;-77
2022/12/31 03:03:45;;;;;;;;;;;10.90;99.90;;;;;;5007039;28;19936;-76
2022/12/31 03:06:11;;;;;;;;;;;10.90;99.90;;;;;;5009470;28;19925;-76
2022/12/31 03:09:11;;;;;;;;;;;10.90;99.90;;;;;;5008651;28;19979;-77
2022/12/31 03:14:10;;;;;;;;;;;10.90;99.90;;;;;;5010263;28;19933;-76
2022/12/31 03:16:35;;;;;;;;;;;10.90;99.90;;;;;;5013560;28;19969;-77
2022/12/31 03:27:13;;;;;;;;;;;10.90;99.90;;;;;;5011567;28;19926;-77
2022/12/31 03:29:39;;;;;;;;;;;10.80;99.90;;;;;;5014724;28;19940;-77
2022/12/31 03:32:04;;;;;;;;;;;10.90;99.90;;;;;;5011981;28;19933;-77
2022/12/31 03:34:30;;;;;;;;;;;10.80;99.90;;;;;;5014107;28;19925;-77
2022/12/31 03:36:56;;;;;;;;;;;10.90;99.90;;;;;;5010558;28;19959;-76
2022/12/31 03:39:21;;;;;;;;;;;10.90;99.90;;;;;;5009192;28;19926;-76
2022/12/31 03:41:47;;;;;;;;;;;10.90;99.90;;;;;;5010882;28;19957;-77
2022/12/31 03:44:12;;;;;;;;;;;10.90;99.90;;;;;;5012710;28;19930;-77
2022/12/31 03:46:38;;;;;;;;;;;10.90;99.90;;;;;;5026910;28;19925;-77
2022/12/31 03:49:03;;;;;;;;;;;10.90;99.90;;;;;;5011175;28;19992;-76
2022/12/31 03:51:29;;;;;;;;;;;10.90;99.90;;;;;;5014091;28;19929;-76
2022/12/31 03:53:54;;;;;;;;;;;11.00;99.90;;;;;;5011138;28;20007;-77
2022/12/31 03:56:20;;;;;;;;;;;11.00;99.90;;;;;;5014181;28;19938;-76
2022/12/31 03:58:45;;;;;;;;;;;11.00;99.90;;;;;;5014223;28;19955;-76
2022/12/31 04:01:11;;;;;;;;;;;11.00;99.90;;;;;;5009577;28;19933;-76
2022/12/31 04:03:36;;;;;;;;;;;11.00;99.90;;;;;;5013346;28;19937;-76
2022/12/31 04:06:02;;;;;;;;;;;10.90;99.90;;;;;;5013730;28;19937;-76
2022/12/31 04:08:28;;;;;;;;;;;11.00;99.90;;;;;;5013069;28;19929;-76
2022/12/31 04:10:53;;;;;;;;;;;11.00;99.90;;;;;;5010802;28;19936;-76
2022/12/31 04:13:19;;;;;;;;;;;11.00;99.90;;;;;;5013219;28;19981;-76
2022/12/31 04:15:44;;;;;;;;;;;10.90;99.90;;;;;;5011837;28;19925;-76
2022/12/31 04:18:10;;;;;;;;;;;10.90;99.90;;;;;;5012534;28;19969;-76
2022/12/31 04:20:35;;;;;;;;;;;10.90;99.90;;;;;;5012404;28;19929;-76
2022/12/31 04:23:01;;;;;;;;;;;10.90;99.90;;;;;;5026370;28;19955;-77
2022/12/31 04:25:26;;;;;;;;;;;10.90;99.90;;;;;;4998464;28;20028;-77
2022/12/31 04:27:52;;;;;;;;;;;10.90;99.90;;;;;;5012279;28;19933;-77
2022/12/31 04:30:18;;;;;;;;;;;10.90;99.90;;;;;;5014045;28;20328;-77
2022/12/31 04:32:43;;;;;;;;;;;10.90;99.90;;;;;;5010868;28;19933;-76
2022/12/31 04:35:09;;;;;;;;;;;10.80;99.90;;;;;;5012029;28;20039;-77
2022/12/31 04:37:35;;;;;;;;;;;10.80;99.90;;;;;;5013083;28;20024;-76
2022/12/31 04:40:01;;;;;;;;;;;10.80;99.90;;;;;;5011363;28;19961;-76
2022/12/31 04:42:26;;;;;;;;;;;10.80;99.90;;;;;;5010191;28;19930;-77
2022/12/31 04:44:52;;;;;;;;;;;10.80;99.90;;;;;;5010674;28;19987;-77
2022/12/31 04:47:17;;;;;;;;;;;10.80;99.90;;;;;;5013858;28;19929;-77
2022/12/31 04:49:43;;;;;;;;;;;10.80;99.90;;;;;;5011434;28;19936;-77
2022/12/31 04:52:08;;;;;;;;;;;10.80;99.90;;;;;;5012925;28;19932;-77
2022/12/31 04:54:34;;;;;;;;;;;10.80;99.90;;;;;;5011847;28;19926;-77
2022/12/31 04:56:59;;;;;;;;;;;10.70;99.90;;;;;;5008974;28;19934;-77
2022/12/31 04:59:25;;;;;;;;;;;10.70;99.90;;;;;;5010054;28;19925;-77
2022/12/31 05:01:50;;;;;;;;;;;10.70;99.90;;;;;;5010217;28;19933;-77
2022/12/31 05:04:16;;;;;;;;;;;10.80;99.90;;;;;;5012798;28;19977;-76
2022/12/31 05:06:42;;;;;;;;;;;10.70;99.90;;;;;;5013080;28;19996;-77
2022/12/31 05:09:07;;;;;;;;;;;10.70;99.90;;;;;;5011086;28;19925;-77
2022/12/31 05:11:34;;;;;;;;;;;10.70;99.90;;;;;;5011470;28;19929;-77
2022/12/31 05:14:00;;;;;;;;;;;10.80;99.90;;;;;;5008887;28;19934;-77
2022/12/31 05:16:25;;;;;;;;;;;10.60;99.90;;;;;;5026648;28;20009;-77
2022/12/31 05:18:51;;;;;;;;;;;10.70;99.90;;;;;;5015044;28;19952;-77
2022/12/31 05:21:18;;;;;;;;;;;10.70;99.90;;;;;;5008176;28;19930;-76
2022/12/31 05:23:44;;;;;;;;;;;10.80;99.90;;;;;;5010836;28;19926;-77
2022/12/31 05:26:10;;;;;;;;;;;10.80;99.90;;;;;;5014439;28;19932;-77
2022/12/31 05:28:35;;;;;;;;;;;10.80;99.90;;;;;;5027932;28;19945;-77
2022/12/31 05:31:01;;;;;;;;;;;10.90;99.90;;;;;;4995644;28;19975;-77
2022/12/31 05:33:26;;;;;;;;;;;10.80;99.90;;;;;;5014932;28;19926;-77
2022/12/31 05:35:52;;;;;;;;;;;10.90;99.90;;;;;;5008190;28;20269;-77
2022/12/31 05:38:17;;;;;;;;;;;10.90;99.90;;;;;;5013085;28;19945;-77
2022/12/31 05:40:43;;;;;;;;;;;10.90;99.90;;;;;;5011966;28;19930;-77
2022/12/31 05:43:09;;;;;;;;;;;10.80;99.90;;;;;;5011265;28;19925;-77
2022/12/31 05:45:34;;;;;;;;;;;10.90;99.90;;;;;;5009283;28;19932;-76
2022/12/31 05:48:00;;;;;;;;;;;10.90;99.90;;;;;;5012605;28;19952;-76
2022/12/31 05:50:25;;;;;;;;;;;10.90;99.90;;;;;;5012100;28;20515;-77
2022/12/31 05:52:51;;;;;;;;;;;10.90;99.90;;;;;;4996043;28;20027;-77
2022/12/31 05:55:16;;;;;;;;;;;10.80;99.90;;;;;;5009851;28;19951;-76
2022/12/31 05:57:42;;;;;;;;;;;10.90;99.90;;;;;;5008250;28;19926;-76
2022/12/31 06:00:08;;;;;;;;;;;10.90;99.90;;;;;;5010533;28;19926;-76
2022/12/31 06:02:34;;;;;;;;;;;10.90;99.90;;;;;;5012005;28;19933;-77
2022/12/31 06:04:59;;;;;;;;;;;10.90;99.90;;;;;;5010361;28;19929;-77
2022/12/31 06:07:25;;;;;;;;;;;10.80;99.90;;;;;;5008785;28;20343;-77
2022/12/31 06:09:50;;;;;;;;;;;10.80;99.90;;;;;;5010909;28;19937;-77
2022/12/31 06:12:16;;;;;;;;;;;10.90;99.90;;;;;;5013170;28;19971;-77
2022/12/31 06:14:42;;;;;;;;;;;10.80;99.90;;;;;;5011881;28;20381;-77
2022/12/31 06:17:08;;;;;;;;;;;10.80;99.90;;;;;;5011527;28;19930;-77
2022/12/31 06:19:34;;;;;;;;;;;10.80;99.90;;;;;;5008919;28;19925;-77
2022/12/31 06:21:59;;;;;;;;;;;10.80;99.90;;;;;;5009087;28;19952;-77
2022/12/31 06:24:25;;;;;;;;;;;10.80;99.90;;;;;;5010917;28;19930;-77
2022/12/31 06:26:50;;;;;;;;;;;10.80;99.90;;;;;;4990471;28;19940;-78
2022/12/31 06:29:16;;;;;;;;;;;10.70;99.90;;;;;;5024886;28;19933;-77
2022/12/31 06:31:41;;;;;;;;;;;10.70;99.90;;;;;;5010126;28;19989;-77
2022/12/31 06:34:07;;;;;;;;;;;10.70;99.90;;;;;;5011892;28;19931;-77
2022/12/31 06:36:32;;;;;;;;;;;10.70;99.90;;;;;;5010982;28;19929;-77
2022/12/31 06:38:58;;;;;;;;;;;10.70;99.90;;;;;;5011502;28;20071;-76
2022/12/31 06:41:24;;;;;;;;;;;10.70;99.90;;;;;;5010479;28;20600;-77
2022/12/31 06:43:49;;;;;;;;;;;10.70;99.90;;;;;;5010479;28;20007;-77
2022/12/31 06:46:16;;;;;;;;;;;10.70;99.90;;;;;;5008533;28;19937;-77
2022/12/31 06:48:43;;;;;;;;;;;10.70;99.90;;;;;;5011846;28;19932;-76
2022/12/31 06:51:16;;;;;;;;;;;10.70;99.90;;;;;;5008566;28;19926;-77
2022/12/31 06:53:42;;;;;;;;;;;10.70;99.90;;;;;;5007580;28;20020;-77
2022/12/31 06:56:18;;;;;;;;;;;10.70;99.90;;;;;;5010931;28;19926;-77
2022/12/31 06:58:45;;;;;;;;;;;10.70;99.90;;;;;;5010026;28;19930;-76
2022/12/31 07:01:13;;;;;;;;;;;10.70;99.90;;;;;;5009781;28;19925;-77
2022/12/31 07:03:42;;;;;;;;;;;10.70;99.90;;;;;;5010552;28;19932;-77
2022/12/31 07:06:12;;;;;;;;;;;10.70;99.90;;;;;;5024090;28;19951;-77
2022/12/31 07:08:47;;;;;;;;;;;10.70;99.90;;;;;;5007393;28;19932;-76
2022/12/31 07:11:19;;;;;;;;;;;10.70;99.90;;;;;;5007370;28;19926;-76
2022/12/31 07:13:52;;;;;;;;;;;10.70;99.90;;;;;;5010417;28;19937;-76
2022/12/31 07:16:28;;;;;;;;;;;10.70;99.90;;;;;;5011028;28;19936;-76
2022/12/31 07:19:05;;;;;;;;;;;10.70;99.90;;;;;;5026862;28;19937;-76
2022/12/31 07:21:36;;;;;;;;;;;10.70;99.90;;;;;;5030063;28;19948;-76
2022/12/31 07:24:02;;;;;;;;;;;10.70;99.90;;;;;;5012672;28;19956;-76
2022/12/31 07:26:40;;;;;;;;;;;10.80;99.90;;;;;;5017243;28;19926;-76
2022/12/31 07:29:10;;;;;;;;;;;10.70;99.90;;;;;;5031648;28;20074;-76
2022/12/31 07:31:36;;;;;;;;;;;10.70;99.90;;;;;;5020616;28;19929;-76
2022/12/31 07:34:09;;;;;;;;;;;10.80;99.90;;;;;;5018635;28;20012;-76
2022/12/31 07:36:37;;;;;;;;;;;10.80;99.90;;;;;;5020406;28;19930;-76
2022/12/31 07:39:11;;;;;;;;;;;10.80;99.90;;;;;;5019796;28;19961;-76
2022/12/31 07:41:46;;;;;;;;;;;10.90;99.90;;;;;;5014343;28;20341;-76
2022/12/31 07:44:31;;;;;;;;;;;10.90;99.90;;;;;;5012308;28;19956;-76
2022/12/31 07:46:58;;;;;;;;;;;10.90;99.90;;;;;;5013731;28;19929;-76
2022/12/31 07:49:25;;;;;;;;;;;10.90;99.90;;;;;;5025825;28;19972;-76
2022/12/31 07:51:50;;;;;;;;;;;10.90;99.90;;;;;;5011547;28;19955;-77
2022/12/31 07:54:16;;;;;;;;;;;10.90;99.90;;;;;;4997086;28;20000;-77
2022/12/31 07:56:42;;;;;;;;;;;10.90;99.90;;;;;;5012969;28;19964;-77
2022/12/31 07:59:11;;;;;;;;;;;10.90;99.90;;;;;;5013887;28;19925;-77
2022/12/31 08:01:46;;;;;;;;;;;10.90;99.90;;;;;;5012526;28;19968;-77
2022/12/31 08:04:37;;;;;;;;;;;11.00;99.90;;;;;;5014196;28;19933;-77
2022/12/31 08:07:25;;;;;;;;;;;11.00;99.90;;;;;;4995280;28;19937;-78
2022/12/31 08:10:10;;;;;;;;;;;11.00;99.90;;;;;;5013039;28;19925;-77
2022/12/31 08:12:36;;;;;;;;;;;11.10;99.90;;;;;;4996469;28;19930;-77
2022/12/31 08:15:02;;;;;;;;;;;11.00;99.90;;;;;;5028673;28;20388;-77
2022/12/31 08:17:28;;;;;;;;;;;11.10;99.90;;;;;;5012976;28;20494;-76
2022/12/31 08:19:53;;;;;;;;;;;11.20;99.90;;;;;;5016223;28;20095;-77
2022/12/31 08:22:37;;;;;;;;;;;11.20;99.90;;;;;;5010561;28;19932;-77
2022/12/31 08:25:25;;;;;;;;;;;11.30;99.90;;;;;;5011437;28;20647;-77
2022/12/31 08:27:57;;;;;;;;;;;11.30;99.90;;;;;;4987362;28;19930;-77
2022/12/31 08:30:25;;;;;;;;;;;11.40;99.90;;;;;;5009873;28;19929;-78
2022/12/31 08:33:10;;;;;;;;;;;11.40;99.90;;;;;;5016686;28;19926;-77
2022/12/31 08:35:58;;;;;;;;;;;11.50;99.90;;;;;;5015104;28;19929;-77
2022/12/31 08:38:28;;;;;;;;;;;11.60;99.90;;;;;;5019038;28;19926;-78
2022/12/31 08:40:59;;;;;;;;;;;11.60;99.90;;;;;;5017841;28;19969;-77
2022/12/31 08:43:44;;;;;;;;;;;11.80;99.90;;;;;;5024116;28;19932;-77
2022/12/31 08:46:17;;;;;;;;;;;11.70;99.90;;;;;;5009052;28;19944;-78
2022/12/31 08:48:44;;;;;;;;;;;11.80;99.90;;;;;;5013637;28;19941;-78
2022/12/31 08:51:20;;;;;;;;;;;11.90;99.90;;;;;;5017626;28;19961;-78
2022/12/31 08:53:47;;;;;;;;;;;12.00;99.90;;;;;;5016593;28;19929;-77
2022/12/31 08:56:28;;;;;;;;;;;12.00;99.90;;;;;;5017602;28;19930;-77
2022/12/31 08:59:09;;;;;;;;;;;12.10;99.90;;;;;;5019645;28;20356;-78
2022/12/31 09:01:53;;;;;;;;;;;12.20;99.90;;;;;;5017648;28;20381;-78
2022/12/31 09:04:25;;;;;;;;;;;12.30;99.90;;;;;;5015295;28;19926;-78
2022/12/31 09:07:00;;;;;;;;;;;12.30;99.90;;;;;;5013487;28;19932;-78
2022/12/31 09:09:31;;;;;;;;;;;12.40;99.90;;;;;;5011784;28;19934;-78
2022/12/31 09:12:10;;;;;;;;;;;12.40;99.90;;;;;;5015238;28;19996;-78
2022/12/31 09:14:41;;;;;;;;;;;12.40;99.90;;;;;;5015011;28;20364;-78
2022/12/31 09:17:22;;;;;;;;;;;12.50;99.90;;;;;;5020418;28;19944;-79
2022/12/31 09:19:48;;;;;;;;;;;12.50;99.90;;;;;;5019613;28;19998;-78
2022/12/31 09:22:13;;;;;;;;;;;12.60;99.90;;;;;;5009802;28;20400;-79
2022/12/31 09:24:39;;;;;;;;;;;12.60;99.90;;;;;;5016947;28;19925;-78
2022/12/31 09:27:12;;;;;;;;;;;12.60;99.90;;;;;;5018265;28;19971;-78
2022/12/31 09:29:37;;;;;;;;;;;12.60;99.90;;;;;;5017644;28;19931;-78
2022/12/31 09:32:22;;;;;;;;;;;12.60;99.90;;;;;;5019256;28;20365;-79
2022/12/31 09:35:02;;;;;;;;;;;12.60;99.90;;;;;;5012499;28;19972;-79
2022/12/31 09:37:57;;;;;;;;;;;12.60;99.90;;;;;;5018102;28;20301;-79
2022/12/31 09:40:32;;;;;;;;;;;12.60;99.90;;;;;;4962894;28;20045;-78
2022/12/31 09:43:17;;;;;;;;;;;12.60;99.90;;;;;;5018405;28;19947;-77
2022/12/31 09:46:00;;;;;;;;;;;12.60;99.90;;;;;;5015010;28;19925;-78
2022/12/31 09:48:45;;;;;;;;;;;12.60;99.90;;;;;;5006002;28;19980;-78
2022/12/31 09:51:13;;;;;;;;;;;12.70;99.90;;;;;;5014210;28;19926;-79
2022/12/31 09:53:42;;;;;;;;;;;12.70;99.90;;;;;;5018838;28;19926;-79
2022/12/31 09:56:07;;;;;;;;;;;12.70;99.90;;;;;;5029009;28;19930;-80
2022/12/31 09:58:42;;;;;;;;;;;12.80;99.90;;;;;;5017378;28;19925;-79
2022/12/31 10:01:24;;;;;;;;;;;12.80;99.90;;;;;;5011988;28;20276;-79
2022/12/31 10:03:56;;;;;;;;;;;12.90;99.90;;;;;;5000349;28;20072;-79
2022/12/31 10:06:24;;;;;;;;;;;13.00;99.90;;;;;;5017732;28;19989;-79
2022/12/31 10:09:05;;;;;;;;;;;13.00;99.90;;;;;;5018112;28;19956;-79
2022/12/31 10:11:40;;;;;;;;;;;13.10;99.90;;;;;;5015004;28;19981;-79
2022/12/31 10:14:24;;;;;;;;;;;13.20;99.90;;;;;;5017918;28;19947;-79
2022/12/31 10:16:52;;;;;;;;;;;13.20;99.90;;;;;;5013369;28;20417;-79
2022/12/31 10:19:27;;;;;;;;;;;13.20;99.90;;;;;;5000557;28;19997;-79
2022/12/31 10:21:56;;;;;;;;;;;13.30;99.90;;;;;;5011569;28;19960;-79
2022/12/31 10:24:33;;;;;;;;;;;13.30;99.90;;;;;;5015256;28;19926;-79
2022/12/31 10:27:18;;;;;;;;;;;13.30;99.90;;;;;;5015178;28;19933;-79
2022/12/31 10:29:58;;;;;;;;;;;13.40;99.90;;;;;;5014163;28;20422;-78
2022/12/31 10:32:30;;;;;;;;;;;13.40;99.90;;;;;;5014454;28;19925;-80
2022/12/31 10:35:12;;;;;;;;;;;13.40;99.90;;;;;;5013728;28;19932;-80
2022/12/31 10:37:45;;;;;;;;;;;13.40;99.90;;;;;;5012756;28;20246;-79
2022/12/31 10:40:16;;;;;;;;;;;13.40;99.90;;;;;;5015283;28;19936;-79
2022/12/31 10:43:02;;;;;;;;;;;13.50;99.90;;;;;;5013222;28;19933;-79
2022/12/31 10:45:51;;;;;;;;;;;13.60;99.90;;;;;;5010829;28;19929;-79
2022/12/31 10:48:22;;;;;;;;;;;13.60;99.90;;;;;;4999401;28;19956;-79
2022/12/31 10:51:02;;;;;;;;;;;13.70;99.90;;;;;;5018574;28;20324;-80
2022/12/31 10:53:30;;;;;;;;;;;13.60;99.90;;;;;;5006710;28;19925;-78
2022/12/31 10:56:14;;;;;;;;;;;13.60;99.90;;;;;;5012680;28;20032;-79
2022/12/31 10:59:09;;;;;;;;;;;13.60;99.90;;;;;;5011042;28;19949;-79
2022/12/31 11:01:47;;;;;;;;;;;13.60;99.90;;;;;;4956667;28;19937;-78
2022/12/31 11:04:24;;;;;;;;;;;13.60;99.90;;;;;;5017126;28;19987;-78
2022/12/31 11:07:09;;;;;;;;;;;13.60;99.90;;;;;;5014220;28;19999;-78
2022/12/31 11:09:34;;;;;;;;;;;13.60;99.90;;;;;;5008069;28;19933;-78
2022/12/31 11:12:09;;;;;;;;;;;13.50;99.90;;;;;;5008380;28;19948;-78
2022/12/31 11:15:04;;;;;;;;;;;13.50;99.90;;;;;;5006314;28;19933;-78
2022/12/31 11:17:40;;;;;;;;;;;13.50;99.90;;;;;;5000798;28;19991;-78
2022/12/31 11:20:24;;;;;;;;;;;13.50;99.90;;;;;;5005442;28;20230;-78
2022/12/31 11:23:09;;;;;;;;;;;13.50;99.90;;;;;;5022725;28;19930;-79
2022/12/31 11:25:34;;;;;;;;;;;13.50;99.90;;;;;;5009029;28;19965;-78
2022/12/31 11:28:00;;;;;;;;;;;13.50;99.90;;;;;;5008834;28;20372;-79
2022/12/31 11:30:40;;;;;;;;;;;13.60;99.90;;;;;;5008909;28;19933;-78
2022/12/31 11:33:23;;;;;;;;;;;13.50;99.90;;;;;;5006140;28;19934;-78
2022/12/31 11:35:59;;;;;;;;;;;13.60;99.90;;;;;;5012041;28;19930;-79
2022/12/31 11:38:39;;;;;;;;;;;13.60;99.90;;;;;;5012911;28;19933;-79
2022/12/31 11:41:08;;;;;;;;;;;13.60;99.90;;;;;;5004898;28;19925;-79
2022/12/31 11:43:37;;;;;;;;;;;13.60;99.90;;;;;;5015848;28;19930;-79
2022/12/31 11:46:18;;;;;;;;;;;13.60;99.90;;;;;;5013908;28;19936;-79
2022/12/31 11:48:58;;;;;;;;;;;13.60;99.90;;;;;;5014011;28;19953;-79
2022/12/31 11:51:24;;;;;;;;;;;13.70;99.90;;;;;;5011396;28;20035;-79
2022/12/31 11:54:08;;;;;;;;;;;13.70;99.90;;;;;;5009772;28;20444;-79
2022/12/31 11:56:36;;;;;;;;;;;13.80;99.90;;;;;;5007125;28;20027;-80
2022/12/31 11:59:06;;;;;;;;;;;13.90;99.90;;;;;;5006382;28;19929;-79
2022/12/31 12:01:42;;;;;;;;;;;14.00;99.90;;;;;;5012632;28;19926;-80
2022/12/31 12:04:08;;;;;;;;;;;14.00;99.90;;;;;;4999443;28;20304;-80
2022/12/31 12:06:34;;;;;;;;;;;14.10;99.90;;;;;;5014899;28;19958;-78
2022/12/31 12:09:10;;;;;;;;;;;14.20;99.90;;;;;;5012111;28;19925;-79
2022/12/31 12:11:39;;;;;;;;;;;14.20;99.90;;;;;;5020865;28;20392;-79
2022/12/31 12:14:18;;;;;;;;;;;14.20;99.90;;;;;;5001296;28;20140;-78
2022/12/31 12:16:44;;;;;;;;;;;14.20;99.90;;;;;;5021188;28;19926;-78
2022/12/31 12:19:16;;;;;;;;;;;14.20;99.90;;;;;;5021001;28;19965;-79
2022/12/31 12:21:46;;;;;;;;;;;14.20;99.90;;;;;;5021173;28;19972;-78
2022/12/31 12:24:30;;;;;;;;;;;14.20;99.90;;;;;;5034902;28;19988;-78
2022/12/31 12:26:56;;;;;;;;;;;14.20;99.90;;;;;;5019732;28;20345;-78
2022/12/31 12:29:30;;;;;;;;;;;14.10;99.90;;;;;;5018026;28;19932;-78
2022/12/31 12:31:55;;;;;;;;;;;14.10;99.90;;;;;;5019375;28;19929;-79
2022/12/31 12:34:27;;;;;;;;;;;14.00;99.90;;;;;;5018462;28;19932;-79
2022/12/31 12:36:52;;;;;;;;;;;14.00;99.90;;;;;;5011660;28;20444;-79
2022/12/31 12:39:25;;;;;;;;;;;14.00;99.90;;;;;;5019671;28;19926;-79
2022/12/31 12:42:02;;;;;;;;;;;14.00;99.90;;;;;;5019263;28;19925;-79
2022/12/31 12:44:28;;;;;;;;;;;14.00;99.90;;;;;;5018127;28;19962;-79
2022/12/31 12:46:54;;;;;;;;;;;14.00;99.90;;;;;;5035118;28;20114;-79
2022/12/31 12:49:21;;;;;;;;;;;13.90;99.90;;;;;;5018822;28;20304;-79
2022/12/31 12:52:01;;;;;;;;;;;13.90;99.90;;;;;;5020980;28;19945;-79
2022/12/31 12:54:45;;;;;;;;;;;13.80;99.90;;;;;;5019022;28;19976;-78
2022/12/31 12:57:19;;;;;;;;;;;13.80;99.90;;;;;;5017856;28;19926;-79
2022/12/31 12:59:51;;;;;;;;;;;13.80;99.90;;;;;;5028005;28;19937;-79
2022/12/31 13:02:41;;;;;;;;;;;13.70;99.90;;;;;;5030632;28;19929;-80
2022/12/31 13:05:30;;;;;;;;;;;13.70;99.90;;;;;;5028468;28;19960;-79
2022/12/31 13:08:19;;;;;;;;;;;13.70;99.90;;;;;;4998776;28;19972;-79
2022/12/31 13:10:47;;;;;;;;;;;13.70;99.90;;;;;;5000819;28;20449;-78
2022/12/31 13:13:16;;;;;;;;;;;13.70;99.90;;;;;;5020105;28;19925;-79
2022/12/31 13:15:57;;;;;;;;;;;13.70;99.90;;;;;;5012061;28;19929;-79
2022/12/31 13:18:22;;;;;;;;;;;13.60;99.90;;;;;;5015573;28;19937;-79
2022/12/31 13:20:54;;;;;;;;;;;13.60;99.90;;;;;;5012331;28;19925;-80
2022/12/31 13:23:20;;;;;;;;;;;13.60;99.90;;;;;;5017811;28;19925;-79
2022/12/31 13:26:01;;;;;;;;;;;13.60;99.90;;;;;;5016831;28;19932;-79
2022/12/31 13:28:27;;;;;;;;;;;13.50;99.90;;;;;;5016650;28;19936;-79
2022/12/31 13:30:55;;;;;;;;;;;13.50;99.90;;;;;;5032624;28;19926;-80
2022/12/31 13:33:23;;;;;;;;;;;13.50;99.90;;;;;;5035157;28;19926;-80
2022/12/31 13:35:51;;;;;;;;;;;13.50;99.90;;;;;;5034353;28;19949;-80
2022/12/31 13:38:32;;;;;;;;;;;13.50;99.90;;;;;;5009956;28;19933;-80
2022/12/31 13:41:01;;;;;;;;;;;13.40;99.90;;;;;;5008965;28;20535;-80
2022/12/31 13:43:42;;;;;;;;;;;13.40;99.90;;;;;;5016174;28;19929;-80
2022/12/31 13:46:10;;;;;;;;;;;13.40;99.90;;;;;;5016498;28;19952;-80
2022/12/31 13:48:57;;;;;;;;;;;13.40;99.90;;;;;;5014377;28;19933;-80
2022/12/31 13:51:36;;;;;;;;;;;13.40;99.90;;;;;;5016916;28;19925;-80
2022/12/31 13:54:09;;;;;;;;;;;13.40;99.90;;;;;;5017031;28;19929;-80
2022/12/31 13:56:36;;;;;;;;;;;13.40;99.90;;;;;;5017987;28;19926;-80
2022/12/31 13:59:40;;;;;;;;;;;13.40;99.90;;;;;;5017949;28;19988;-80
2022/12/31 14:02:24;;;;;;;;;;;13.50;99.90;;;;;;4941150;29;19961;-80
2022/12/31 14:04:52;;;;;;;;;;;13.50;99.90;;;;;;4940117;29;19930;-79
2022/12/31 14:07:20;;;;;;;;;;;13.50;99.90;;;;;;4992686;28;19929;-79
2022/12/31 14:09:45;;;;;;;;;;;13.50;99.90;;;;;;4998595;28;19935;-80
2022/12/31 14:12:30;;;;;;;;;;;13.50;99.90;;;;;;5013963;28;20024;-80
2022/12/31 14:14:58;;;;;;;;;;;13.40;99.90;;;;;;5017542;28;20328;-81
2022/12/31 14:17:32;;;;;;;;;;;13.50;99.90;;;;;;5000135;28;19976;-81
2022/12/31 14:20:16;;;;;;;;;;;13.60;99.90;;;;;;5014528;28;19940;-80
2022/12/31 14:22:42;;;;;;;;;;;13.60;99.90;;;;;;5017366;28;19940;-81
2022/12/31 14:25:15;;;;;;;;;;;13.60;99.90;;;;;;5014885;28;19925;-81
2022/12/31 14:27:41;;;;;;;;;;;13.70;99.90;;;;;;5015627;28;20250;-81
2022/12/31 14:30:18;;;;;;;;;;;13.70;99.90;;;;;;5016279;28;19939;-81
2022/12/31 14:33:02;;;;;;;;;;;13.70;99.90;;;;;;5013279;28;19952;-80
2022/12/31 14:35:28;;;;;;;;;;;13.70;99.90;;;;;;5010552;28;19926;-82
2022/12/31 14:37:53;;;;;;;;;;;13.70;99.90;;;;;;5003836;28;20331;-82
2022/12/31 14:40:29;;;;;;;;;;;13.80;99.90;;;;;;5015818;28;19925;-81
2022/12/31 14:43:00;;;;;;;;;;;13.80;99.90;;;;;;4999177;28;19929;-81
2022/12/31 14:45:33;;;;;;;;;;;13.70;99.90;;;;;;5015927;28;20442;-81
2022/12/31 14:48:12;;;;;;;;;;;13.70;99.90;;;;;;5015964;28;19925;-81
2022/12/31 14:50:38;;;;;;;;;;;13.70;99.90;;;;;;5030923;28;19926;-81